createdAt,value
2019-05-02T00:00:36.154Z,85.62
2019-05-02T00:01:35.042Z,85.42
2019-05-02T00:02:33.613Z,85.52
2019-05-02T00:03:35.861Z,85.62
2019-05-02T00:04:30.947Z,85.33
2019-05-02T00:05:32.017Z,85.71
2019-05-02T00:06:28.051Z,86.19
2019-05-02T00:07:26.623Z,86.29
2019-05-02T00:08:29.192Z,85.42
2019-05-02T00:09:23.753Z,85.42
2019-05-02T00:10:24.767Z,84.89
2019-05-02T00:11:20.877Z,85.28
2019-05-02T00:12:19.427Z,84.8
2019-05-02T00:13:18.012Z,84.7
2019-05-02T00:14:16.631Z,84.42
2019-05-02T00:15:15.235Z,84.7
2019-05-02T00:16:15.304Z,83.75
2019-05-02T00:17:12.372Z,83.7
2019-05-02T00:18:11.122Z,83.84
2019-05-02T00:19:13.887Z,84.61
2019-05-02T00:20:08.225Z,84.66
2019-05-02T00:21:06.882Z,84.52
2019-05-02T00:22:05.486Z,84.8
2019-05-02T00:23:04.051Z,84.32
2019-05-02T00:24:02.965Z,84.32
2019-05-02T00:25:01.336Z,84.61
2019-05-02T00:25:59.884Z,84.23
2019-05-02T00:27:01.193Z,84.23
2019-05-02T00:27:57.225Z,84.52
2019-05-02T00:28:55.797Z,84.42
2019-05-02T00:29:58.595Z,84.89
2019-05-02T00:30:53.006Z,85.14
2019-05-02T00:31:51.565Z,85.62
2019-05-02T00:32:53.088Z,85.9
2019-05-02T00:33:48.757Z,86.19
2019-05-02T00:34:47.303Z,85.71
2019-05-02T00:35:47.338Z,85.9
2019-05-02T00:36:44.667Z,86.67
2019-05-02T00:37:43.343Z,87.24
2019-05-02T00:38:41.901Z,87.15
2019-05-02T00:39:40.551Z,87.34
2019-05-02T00:40:39.255Z,87.34
2019-05-02T00:41:38.299Z,87.15
2019-05-02T00:42:36.347Z,87.53
2019-05-02T00:43:36.400Z,86.76
2019-05-02T00:44:33.503Z,87.15
2019-05-02T00:45:32.047Z,87.05
2019-05-02T00:46:34.878Z,87.91
2019-05-02T00:47:29.428Z,88.01
2019-05-02T00:48:27.994Z,87.34
2019-05-02T00:49:30.735Z,88.1
2019-05-02T00:50:25.395Z,88.2
2019-05-02T00:51:26.659Z,88.2
2019-05-02T00:52:22.516Z,88.29
2019-05-02T00:53:21.105Z,87.77
2019-05-02T00:54:24.110Z,87.87
2019-05-02T00:55:18.336Z,87.87
2019-05-02T00:56:16.909Z,87.77
2019-05-02T00:57:19.865Z,87.82
2019-05-02T00:58:14.038Z,88.06
2019-05-02T00:59:12.704Z,87.87
2019-05-02T01:00:13.229Z,88.34
2019-05-02T01:01:09.814Z,89.11
2019-05-02T01:02:08.418Z,89.01
2019-05-02T01:03:10.984Z,88.82
2019-05-02T01:04:05.646Z,89.49
2019-05-02T01:05:04.532Z,89.78
2019-05-02T01:06:02.766Z,89.49
2019-05-02T01:07:01.334Z,89.87
2019-05-02T01:08:01.003Z,90.25
2019-05-02T01:08:58.653Z,90.59
2019-05-02T01:09:57.383Z,90.83
2019-05-02T01:10:56.752Z,90.25
2019-05-02T01:11:54.580Z,90.06
2019-05-02T01:12:53.195Z,89.49
2019-05-02T01:13:55.580Z,89.49
2019-05-02T01:14:50.279Z,89.01
2019-05-02T01:15:48.864Z,88.44
2019-05-02T01:16:49.333Z,88.15
2019-05-02T01:17:45.938Z,88.25
2019-05-02T01:18:44.568Z,88.82
2019-05-02T01:19:47.128Z,88.92
2019-05-02T01:20:41.791Z,88.25
2019-05-02T01:21:40.434Z,87.68
2019-05-02T01:22:39.266Z,88.15
2019-05-02T01:23:37.819Z,87.68
2019-05-02T01:24:39.522Z,87.77
2019-05-02T01:25:34.969Z,87.1
2019-05-02T01:26:33.544Z,87.48
2019-05-02T01:27:35.936Z,87.2
2019-05-02T01:28:30.634Z,86.72
2019-05-02T01:29:29.740Z,86.43
2019-05-02T01:30:27.744Z,86.63
2019-05-02T01:31:26.328Z,86.34
2019-05-02T01:32:29.605Z,86.63
2019-05-02T01:33:23.645Z,86
2019-05-02T01:34:22.287Z,85.9
2019-05-02T01:35:20.901Z,85.71
2019-05-02T01:36:19.493Z,85.52
2019-05-02T01:37:20.578Z,85.33
2019-05-02T01:38:16.676Z,85.48
2019-05-02T01:39:15.238Z,85.77
2019-05-02T01:40:17.671Z,85.62
2019-05-02T01:41:12.302Z,85.62
2019-05-02T01:42:10.858Z,85.33
2019-05-02T01:43:09.405Z,85.71
2019-05-02T01:44:07.958Z,85.58
2019-05-02T01:45:10.786Z,85.67
2019-05-02T01:46:05.229Z,86.34
2019-05-02T01:47:03.772Z,85.81
2019-05-02T01:48:04.904Z,86.05
2019-05-02T01:49:01.226Z,86.1
2019-05-02T01:49:59.772Z,86.19
2019-05-02T01:50:58.338Z,86.29
2019-05-02T01:51:56.927Z,86.29
2019-05-02T01:52:58.429Z,85.81
2019-05-02T01:53:54.084Z,85.42
2019-05-02T01:54:52.699Z,86
2019-05-02T01:55:51.814Z,85.9
2019-05-02T01:56:49.864Z,86.24
2019-05-02T01:57:48.535Z,86.53
2019-05-02T01:58:47.212Z,87.01
2019-05-02T01:59:45.758Z,88.25
2019-05-02T02:00:44.718Z,87.87
2019-05-02T02:01:42.978Z,88.25
2019-05-02T02:02:41.547Z,89.25
2019-05-02T02:03:40.401Z,89.83
2019-05-02T02:04:38.654Z,89.83
2019-05-02T02:05:37.206Z,90.11
2019-05-02T02:06:38.724Z,90.02
2019-05-02T02:07:34.381Z,90.11
2019-05-02T02:08:33.956Z,90.5
2019-05-02T02:09:31.758Z,90.78
2019-05-02T02:10:30.339Z,90.78
2019-05-02T02:11:33.717Z,90.78
2019-05-02T02:12:27.667Z,90.59
2019-05-02T02:13:26.208Z,90.69
2019-05-02T02:14:24.809Z,90.21
2019-05-02T02:15:25.018Z,90.02
2019-05-02T02:16:21.945Z,90.4
2019-05-02T02:17:20.622Z,89.97
2019-05-02T02:18:22.069Z,89.68
2019-05-02T02:19:17.807Z,89.01
2019-05-02T02:20:16.464Z,89.68
2019-05-02T02:21:15.141Z,89.39
2019-05-02T02:22:13.710Z,88.82
2019-05-02T02:23:14.056Z,89.68
2019-05-02T02:24:10.821Z,89.2
2019-05-02T02:25:09.441Z,90.06
2019-05-02T02:26:11.872Z,89.73
2019-05-02T02:27:06.600Z,90.25
2019-05-02T02:28:05.138Z,90.59
2019-05-02T02:29:07.750Z,90.78
2019-05-02T02:30:02.435Z,90.64
2019-05-02T02:31:04.603Z,90.21
2019-05-02T02:31:59.662Z,90.4
2019-05-02T02:33:00.351Z,91.36
2019-05-02T02:33:57.091Z,91.16
2019-05-02T02:34:55.629Z,91.16
2019-05-02T02:35:54.201Z,91.83
2019-05-02T02:36:53.098Z,92.21
2019-05-02T02:37:52.862Z,92.02
2019-05-02T02:38:50.238Z,91.55
2019-05-02T02:39:53.949Z,90.88
2019-05-02T02:40:47.444Z,91.55
2019-05-02T02:41:51.935Z,90.69
2019-05-02T02:42:44.660Z,90.25
2019-05-02T02:43:43.234Z,90.54
2019-05-02T02:44:42.039Z,89.68
2019-05-02T02:45:40.311Z,89.49
2019-05-02T02:46:40.054Z,88.92
2019-05-02T02:47:37.423Z,89.11
2019-05-02T02:48:40.403Z,89.11
2019-05-02T02:49:34.779Z,88.92
2019-05-02T02:50:36.506Z,88.82
2019-05-02T02:51:31.937Z,89.3
2019-05-02T02:52:30.634Z,89.01
2019-05-02T02:53:29.264Z,88.82
2019-05-02T02:54:27.780Z,89.49
2019-05-02T02:55:26.368Z,89.2
2019-05-02T02:56:25.019Z,89.2
2019-05-02T02:57:27.874Z,89.59
2019-05-02T02:58:22.159Z,89.59
2019-05-02T02:59:26.088Z,89.49
2019-05-02T03:00:19.417Z,89.59
2019-05-02T03:01:26.864Z,89.68
2019-05-02T03:02:16.565Z,89.3
2019-05-02T03:03:20.616Z,89.59
2019-05-02T03:04:13.813Z,89.97
2019-05-02T03:05:18.466Z,89.59
2019-05-02T03:06:11.065Z,89.39
2019-05-02T03:07:09.606Z,89.3
2019-05-02T03:08:08.198Z,89.49
2019-05-02T03:09:06.758Z,89.68
2019-05-02T03:10:05.942Z,89.3
2019-05-02T03:11:03.818Z,90.06
2019-05-02T03:12:04.494Z,89.97
2019-05-02T03:13:01.164Z,89.68
2019-05-02T03:14:06.213Z,90.25
2019-05-02T03:14:58.339Z,89.87
2019-05-02T03:16:00.263Z,89.68
2019-05-02T03:16:55.659Z,90.06
2019-05-02T03:17:59.863Z,90.54
2019-05-02T03:18:52.896Z,90.83
2019-05-02T03:19:54.153Z,90.73
2019-05-02T03:20:49.960Z,90.73
2019-05-02T03:21:54.190Z,90.83
2019-05-02T03:22:47.085Z,90.64
2019-05-02T03:23:48.438Z,90.64
2019-05-02T03:24:47.527Z,90.54
2019-05-02T03:25:50.247Z,90.35
2019-05-02T03:26:48.588Z,89.97
2019-05-02T03:27:43.510Z,89.97
2019-05-02T03:28:42.092Z,89.59
2019-05-02T03:29:44.386Z,89.68
2019-05-02T03:30:39.521Z,89.39
2019-05-02T03:31:38.063Z,89.01
2019-05-02T03:32:36.913Z,89.39
2019-05-02T03:33:51.153Z,88.92
2019-05-02T03:34:46.960Z,89.01
2019-05-02T03:35:42.318Z,88.82
2019-05-02T03:36:35.969Z,89.2
2019-05-02T03:37:30.077Z,89.3
2019-05-02T03:38:32.271Z,88.34
2019-05-02T03:39:27.520Z,88.63
2019-05-02T03:40:32.071Z,88.87
2019-05-02T03:41:25.279Z,88.06
2019-05-02T03:42:23.841Z,88.25
2019-05-02T03:43:25.432Z,88.73
2019-05-02T03:44:25.755Z,88.58
2019-05-02T03:45:19.703Z,89.11
2019-05-02T03:46:20.382Z,89.68
2019-05-02T03:47:16.810Z,89.68
2019-05-02T03:48:18.062Z,89.68
2019-05-02T03:49:13.924Z,89.49
2019-05-02T03:50:12.674Z,89.78
2019-05-02T03:51:19.076Z,90.16
2019-05-02T03:52:09.936Z,90.16
2019-05-02T03:53:08.595Z,90.35
2019-05-02T03:54:10.269Z,90.16
2019-05-02T03:55:05.900Z,90.83
2019-05-02T03:56:10.207Z,90.69
2019-05-02T03:57:02.995Z,91.07
2019-05-02T03:58:12.764Z,91.74
2019-05-02T03:59:00.840Z,91.55
2019-05-02T03:59:59.432Z,91.83
2019-05-02T04:01:01.457Z,92.36
2019-05-02T04:01:56.569Z,92.65
2019-05-02T04:03:00.141Z,93.02
2019-05-02T04:03:53.742Z,92.83
2019-05-02T04:04:54.025Z,92.93
2019-05-02T04:05:51.211Z,92.97
2019-05-02T04:07:48.311Z,92.5
2019-05-02T04:08:46.948Z,92.97
2019-05-02T04:09:45.582Z,92.88
2019-05-02T04:10:44.156Z,92.97
2019-05-02T04:11:42.729Z,92.5
2019-05-02T04:12:41.387Z,92.93
2019-05-02T04:13:39.949Z,92.65
2019-05-02T04:14:39.364Z,93.12
2019-05-02T04:15:37.590Z,92.65
2019-05-02T04:16:35.851Z,93.41
2019-05-02T04:17:35.192Z,93.12
2019-05-02T04:18:33.063Z,93.31
2019-05-02T04:19:34.741Z,93.12
2019-05-02T04:20:30.184Z,93.02
2019-05-02T04:21:28.747Z,93.88
2019-05-02T04:22:27.309Z,93.51
2019-05-02T04:23:27.476Z,93.6
2019-05-02T04:24:24.596Z,93.79
2019-05-02T04:25:27.773Z,93.79
2019-05-02T04:26:21.828Z,93.79
2019-05-02T04:27:20.566Z,93.7
2019-05-02T04:28:19.288Z,93.6
2019-05-02T04:29:17.848Z,94.07
2019-05-02T04:30:16.762Z,93.31
2019-05-02T04:31:15.330Z,93.31
2019-05-02T04:32:14.386Z,93.02
2019-05-02T04:33:12.485Z,92.83
2019-05-02T04:34:15.077Z,93.7
2019-05-02T04:35:09.830Z,93.7
2019-05-02T04:36:14.996Z,93.12
2019-05-02T04:37:07.053Z,92.65
2019-05-02T04:38:15.133Z,93.22
2019-05-02T04:39:05.605Z,93.46
2019-05-02T04:40:04.059Z,93.02
2019-05-02T04:41:01.582Z,92.93
2019-05-02T04:42:05.171Z,93.07
2019-05-02T04:43:01.795Z,92.79
2019-05-02T04:44:01.241Z,92.5
2019-05-02T04:45:13.620Z,92.5
2019-05-02T04:45:57.125Z,92.12
2019-05-02T04:46:59.625Z,91.83
2019-05-02T04:47:58.373Z,91.55
2019-05-02T04:48:52.795Z,91.3
2019-05-02T04:49:51.902Z,90.92
2019-05-02T04:50:48.215Z,90.73
2019-05-02T04:51:48.208Z,90.73
2019-05-02T04:52:48.094Z,90.83
2019-05-02T04:53:45.202Z,90.64
2019-05-02T04:54:41.841Z,90.64
2019-05-02T04:55:40.373Z,90.73
2019-05-02T04:56:48.489Z,90.83
2019-05-02T04:57:46.739Z,91.11
2019-05-02T04:58:37.816Z,91.21
2019-05-02T04:59:34.846Z,91.59
2019-05-02T05:00:33.470Z,91.5
2019-05-02T05:01:41.840Z,91.88
2019-05-02T05:02:36.282Z,91.74
2019-05-02T05:03:29.321Z,91.64
2019-05-02T05:04:33.052Z,92.12
2019-05-02T05:05:28.295Z,92.12
2019-05-02T05:06:27.486Z,92.69
2019-05-02T05:07:23.856Z,92.79
2019-05-02T05:08:26.153Z,92.74
2019-05-02T05:09:21.014Z,98.32
2019-05-02T05:10:19.596Z,99.99
2019-05-02T05:11:24.359Z,99.99
2019-05-02T05:12:17.600Z,99.99
2019-05-02T05:13:17.280Z,99.99
2019-05-02T05:14:14.137Z,99.99
2019-05-02T05:15:13.290Z,99.99
2019-05-02T05:16:15.462Z,99.99
2019-05-02T05:17:10.075Z,99.99
2019-05-02T05:18:10.305Z,99.99
2019-05-02T05:19:07.668Z,99.99
2019-05-02T05:20:13.600Z,99.99
2019-05-02T05:21:04.437Z,99.99
2019-05-02T05:22:04.633Z,99.99
2019-05-02T05:23:01.766Z,99.99
2019-05-02T05:24:01.427Z,99.99
2019-05-02T05:24:59.167Z,99.99
2019-05-02T05:26:02.881Z,99.99
2019-05-02T05:26:57.800Z,99.99
2019-05-02T05:27:58.201Z,99.99
2019-05-02T05:28:53.439Z,99.99
2019-05-02T05:29:53.437Z,99.99
2019-05-02T05:30:52.123Z,99.99
2019-05-02T05:31:49.260Z,99.99
2019-05-02T05:32:47.938Z,99.99
2019-05-02T05:33:47.846Z,99.99
2019-05-02T05:34:44.992Z,99.99
2019-05-02T05:35:48.663Z,99.99
2019-05-02T05:36:42.204Z,99.99
2019-05-02T05:37:43.114Z,99.99
2019-05-02T05:38:40.668Z,99.99
2019-05-02T05:39:38.252Z,99.99
2019-05-02T05:40:37.589Z,99.99
2019-05-02T05:41:37.564Z,99.99
2019-05-02T05:42:34.013Z,99.99
2019-05-02T05:43:32.691Z,99.99
2019-05-02T05:44:32.795Z,99.99
2019-05-02T05:45:30.027Z,99.99
2019-05-02T05:46:28.597Z,99.99
2019-05-02T05:47:27.426Z,99.99
2019-05-02T05:48:27.361Z,99.99
2019-05-02T05:49:24.283Z,99.99
2019-05-02T05:50:22.820Z,99.99
2019-05-02T05:51:21.466Z,99.99
2019-05-02T05:52:20.017Z,99.99
2019-05-02T05:53:21.029Z,99.99
2019-05-02T05:54:17.867Z,99.62
2019-05-02T05:55:18.116Z,99.99
2019-05-02T05:56:14.664Z,99.99
2019-05-02T05:57:17.301Z,99.99
2019-05-02T05:58:15.428Z,99.99
2019-05-02T05:59:10.432Z,99.99
2019-05-02T06:00:15.540Z,99.99
2019-05-02T06:01:10.107Z,99.99
2019-05-02T06:02:12.579Z,99.99
2019-05-02T06:03:11.329Z,98.81
2019-05-02T06:04:03.538Z,98.9
2019-05-02T06:05:03.637Z,93.02
2019-05-02T06:06:00.681Z,88.9
2019-05-02T06:07:02.900Z,87.95
2019-05-02T06:07:57.993Z,90.24
2019-05-02T06:08:56.579Z,91.72
2019-05-02T06:09:55.110Z,99.1
2019-05-02T06:10:53.682Z,91.25
2019-05-02T06:13:05.134Z,99.96
2019-05-02T06:14:01.341Z,99.58
2019-05-02T06:15:01.558Z,99.99
2019-05-02T06:16:02.331Z,96.89
2019-05-02T06:16:57.150Z,99.99
2019-05-02T06:17:59.921Z,99.99
2019-05-02T06:18:54.334Z,99.99
2019-05-02T06:19:53.454Z,99.99
2019-05-02T06:20:51.469Z,89.66
2019-05-02T06:21:50.030Z,86.31
2019-05-02T06:22:48.582Z,93.59
2019-05-02T06:23:47.131Z,95.03
2019-05-02T06:24:46.032Z,91.67
2019-05-02T06:25:44.254Z,93.21
2019-05-02T06:28:24.797Z,84.34
2019-05-02T06:29:23.492Z,85.06
2019-05-02T06:30:22.077Z,87.84
2019-05-02T06:31:20.690Z,90.91
2019-05-02T06:32:20.624Z,87.27
2019-05-02T06:33:17.974Z,85.64
2019-05-02T06:34:16.586Z,84.3
2019-05-02T06:35:17.036Z,86.6
2019-05-02T06:36:14.245Z,88.32
2019-05-02T06:37:13.398Z,89.86
2019-05-02T06:38:11.575Z,91
2019-05-02T06:39:10.155Z,91.1
2019-05-02T06:40:09.437Z,86.21
2019-05-02T06:41:07.467Z,84.97
2019-05-02T06:42:06.170Z,84.2
2019-05-02T06:43:09.562Z,85.68
2019-05-02T06:44:03.308Z,87.98
2019-05-02T06:45:01.862Z,85.78
2019-05-02T06:46:00.740Z,85.78
2019-05-02T06:47:04.155Z,85.54
2019-05-02T06:48:00.959Z,88.7
2019-05-02T06:48:56.563Z,86.6
2019-05-02T06:49:56.013Z,87.46
2019-05-02T06:50:53.811Z,87.21
2019-05-02T06:53:35.115Z,85.01
2019-05-02T06:54:33.082Z,84.82
2019-05-02T07:05:27.132Z,93.35
2019-05-02T07:06:23.718Z,88.27
2019-05-02T07:09:04.139Z,99.99
2019-05-02T07:10:02.647Z,99.99
2019-05-02T07:11:03.111Z,99.99
2019-05-02T07:12:01.541Z,99.99
2019-05-02T07:13:09.916Z,99.99
2019-05-02T07:13:57.218Z,99.99
2019-05-02T07:15:00.986Z,99.99
2019-05-02T07:15:54.498Z,97.14
2019-05-02T07:16:54.393Z,99.54
2019-05-02T07:17:51.873Z,99.44
2019-05-02T07:18:50.413Z,99.99
2019-05-02T07:19:48.975Z,99.99
2019-05-02T07:20:47.527Z,94.74
2019-05-02T07:21:46.159Z,95.89
2019-05-02T07:22:45.645Z,98.91
2019-05-02T07:23:43.597Z,99.99
2019-05-02T07:24:42.176Z,96.99
2019-05-02T07:25:43.858Z,92.29
2019-05-02T07:26:39.468Z,85.71
2019-05-02T07:27:39.240Z,92.1
2019-05-02T07:28:40.164Z,90.08
2019-05-02T07:29:35.164Z,92.14
2019-05-02T07:30:34.954Z,88.69
2019-05-02T07:31:32.263Z,87.58
2019-05-02T07:32:31.032Z,89.12
2019-05-02T07:33:32.173Z,86.81
2019-05-02T07:34:28.140Z,84.8
2019-05-02T07:35:27.045Z,81.86
2019-05-02T07:36:25.632Z,84.55
2019-05-02T07:37:24.151Z,84.6
2019-05-02T07:38:25.547Z,83.78
2019-05-02T07:39:21.273Z,81.28
2019-05-02T07:40:19.880Z,80.76
2019-05-02T07:41:18.424Z,84.03
2019-05-02T07:42:17.078Z,84.22
2019-05-02T07:43:20.913Z,85.18
2019-05-02T07:44:14.241Z,83.45
2019-05-02T07:45:13.020Z,83.16
2019-05-02T07:46:16.098Z,83.64
2019-05-02T07:47:10.287Z,82.3
2019-05-02T07:48:12.425Z,83.54
2019-05-02T07:49:07.392Z,85.28
2019-05-02T07:50:10.245Z,80.76
2019-05-02T07:51:04.606Z,84.6
2019-05-02T07:52:03.329Z,88.54
2019-05-02T07:53:04.297Z,86.95
2019-05-02T07:54:00.454Z,82.63
2019-05-02T07:55:01.017Z,83.97
2019-05-02T07:55:57.781Z,83.63
2019-05-02T07:56:56.333Z,88.24
2019-05-02T07:57:54.967Z,87.86
2019-05-02T07:58:53.518Z,88.73
2019-05-02T07:59:54.803Z,92.09
2019-05-02T08:00:50.868Z,89.98
2019-05-02T08:01:49.846Z,85.84
2019-05-02T08:02:48.001Z,83.67
2019-05-02T08:03:46.557Z,83.96
2019-05-02T08:04:45.369Z,80.6
2019-05-02T08:05:43.937Z,85.78
2019-05-02T08:06:44.541Z,90.02
2019-05-02T08:07:41.113Z,85.46
2019-05-02T08:08:39.707Z,79.53
2019-05-02T08:09:39.127Z,85.5
2019-05-02T08:10:36.843Z,91.27
2019-05-02T08:11:37.031Z,91.36
2019-05-02T08:12:34.000Z,89.15
2019-05-02T08:13:32.744Z,81.27
2019-05-02T08:14:34.465Z,86.18
2019-05-02T08:15:29.949Z,88.67
2019-05-02T08:16:28.701Z,91.08
2019-05-02T08:17:27.182Z,88.96
2019-05-02T08:18:30.225Z,87.52
2019-05-02T08:19:24.440Z,83.96
2019-05-02T08:20:23.295Z,89.54
2019-05-02T08:21:21.822Z,87.81
2019-05-02T08:22:20.397Z,86.36
2019-05-02T08:23:20.356Z,85.78
2019-05-02T08:24:17.851Z,87.04
2019-05-02T08:25:16.424Z,93.87
2019-05-02T08:26:16.266Z,96.27
2019-05-02T08:27:13.535Z,88.48
2019-05-02T08:28:15.736Z,88.33
2019-05-02T08:29:10.864Z,99.3
2019-05-02T08:30:09.488Z,87.18
2019-05-02T08:31:08.031Z,92.18
2019-05-02T08:32:06.580Z,83.62
2019-05-02T08:33:05.385Z,78.38
2019-05-02T08:34:05.139Z,90.26
2019-05-02T08:35:02.480Z,85.83
2019-05-02T08:36:01.137Z,80.06
2019-05-02T08:37:03.059Z,82.27
2019-05-02T08:37:58.278Z,76.84
2019-05-02T08:38:56.884Z,75.79
2019-05-02T08:39:55.453Z,73.19
2019-05-02T08:40:54.075Z,75.49
2019-05-02T08:41:56.225Z,81.75
2019-05-02T08:42:51.520Z,81.65
2019-05-02T08:43:50.095Z,80.3
2019-05-02T08:44:50.939Z,77.51
2019-05-02T08:45:47.292Z,77.51
2019-05-02T08:46:46.085Z,78.28
2019-05-02T08:47:44.385Z,82.14
2019-05-02T08:48:43.739Z,80.6
2019-05-02T08:49:42.534Z,81.13
2019-05-02T08:50:40.124Z,79.69
2019-05-02T08:51:41.442Z,79.05
2019-05-02T08:52:42.069Z,83.19
2019-05-02T08:53:36.197Z,81.46
2019-05-02T08:54:34.749Z,73.67
2019-05-02T08:55:33.416Z,73.96
2019-05-02T08:56:34.707Z,72.32
2019-05-02T08:57:34.521Z,71.04
2019-05-02T08:58:29.272Z,73.96
2019-05-02T08:59:27.859Z,78.86
2019-05-02T09:00:26.444Z,79.05
2019-05-02T09:01:34.801Z,79.82
2019-05-02T09:02:25.827Z,82.14
2019-05-02T09:03:22.463Z,84.06
2019-05-02T09:04:24.061Z,77.9
2019-05-02T09:05:19.654Z,75.49
2019-05-02T09:06:22.294Z,79.35
2019-05-02T09:07:16.827Z,83.72
2019-05-02T09:08:16.582Z,82.85
2019-05-02T09:09:14.004Z,81.6
2019-05-02T09:10:12.664Z,85.83
2019-05-02T09:11:14.110Z,79
2019-05-02T09:12:13.021Z,87.95
2019-05-02T09:13:08.487Z,86.51
2019-05-02T09:14:07.142Z,91.55
2019-05-02T09:15:05.791Z,87.32
2019-05-02T09:16:05.903Z,86.26
2019-05-02T09:17:08.046Z,81.63
2019-05-02T09:18:02.800Z,82.7
2019-05-02T09:19:02.533Z,85.68
2019-05-02T09:20:02.756Z,84.05
2019-05-02T09:20:58.345Z,81.35
2019-05-02T09:21:57.138Z,78.5
2019-05-02T09:22:56.145Z,73.58
2019-05-02T09:23:54.293Z,75.86
2019-05-02T09:24:52.827Z,79.03
2019-05-02T09:25:51.968Z,78.94
2019-05-02T09:26:51.874Z,76.44
2019-05-02T09:27:48.668Z,75.86
2019-05-02T09:28:47.404Z,80.1
2019-05-02T09:29:46.044Z,81.39
2019-05-02T09:30:46.766Z,80.77
2019-05-02T09:31:45.987Z,83.08
2019-05-02T09:32:42.024Z,74.74
2019-05-02T09:33:42.273Z,74.74
2019-05-02T09:34:39.122Z,79.46
2019-05-02T09:35:37.673Z,85.14
2019-05-02T09:39:36.568Z,77.34
2019-05-02T09:40:33.709Z,80.91
2019-05-02T09:41:36.058Z,84.28
2019-05-02T09:42:32.464Z,87.55
2019-05-02T09:43:33.904Z,91.41
2019-05-02T09:44:27.983Z,82.45
2019-05-02T09:45:27.667Z,81.2
2019-05-02T09:46:25.152Z,86.01
2019-05-02T09:47:27.203Z,83.22
2019-05-02T09:48:26.621Z,77.92
2019-05-02T09:49:22.011Z,79.36
2019-05-02T09:50:25.086Z,78.15
2019-05-02T09:51:17.953Z,81.52
2019-05-02T09:52:16.525Z,81.04
2019-05-02T09:53:20.489Z,79.94
2019-05-02T09:54:13.888Z,80.04
2019-05-02T09:55:12.449Z,74.07
2019-05-02T09:56:12.656Z,74.26
2019-05-02T09:57:09.802Z,73.39
2019-05-02T09:58:10.304Z,74.36
2019-05-02T09:59:24.156Z,75.42
2019-05-02T10:00:05.469Z,74.71
2019-05-02T10:01:04.136Z,78.08
2019-05-02T10:02:02.868Z,78.08
2019-05-02T10:03:02.651Z,79.81
2019-05-02T10:04:02.176Z,85.1
2019-05-02T10:04:58.753Z,85.39
2019-05-02T10:05:57.449Z,85.3
2019-05-02T10:06:56.022Z,79.71
2019-05-02T10:07:57.357Z,81.29
2019-05-02T10:08:53.223Z,76.67
2019-05-02T10:09:51.978Z,79.56
2019-05-02T10:10:52.128Z,80.62
2019-05-02T10:11:49.090Z,76.18
2019-05-02T10:12:47.709Z,71.18
2019-05-02T10:13:46.360Z,70.89
2019-05-02T10:14:44.994Z,71.66
2019-05-02T10:15:43.654Z,71.76
2019-05-02T10:16:42.668Z,80.81
2019-05-02T10:17:42.723Z,76.61
2019-05-02T10:18:43.528Z,74.97
2019-05-02T10:19:48.757Z,75.65
2019-05-02T10:20:41.876Z,77.48
2019-05-02T10:21:39.333Z,76.61
2019-05-02T10:22:39.197Z,83.36
2019-05-02T10:23:36.478Z,73.72
2019-05-02T10:24:35.183Z,70.54
2019-05-02T10:25:38.414Z,70.35
2019-05-02T10:26:32.988Z,69.06
2019-05-02T10:27:32.244Z,71.98
2019-05-02T10:28:31.523Z,71.22
2019-05-02T10:29:29.664Z,69.19
2019-05-02T10:30:26.532Z,73.53
2019-05-02T10:31:27.457Z,71.31
2019-05-02T10:32:23.759Z,78.34
2019-05-02T10:33:22.589Z,70.73
2019-05-02T10:34:22.587Z,68.9
2019-05-02T10:35:19.840Z,74.3
2019-05-02T10:36:19.507Z,73.82
2019-05-02T10:37:16.953Z,78.67
2019-05-02T10:38:19.331Z,73.53
2019-05-02T10:39:15.756Z,72.79
2019-05-02T10:40:16.822Z,75.45
2019-05-02T10:41:11.973Z,73.82
2019-05-02T10:42:10.039Z,77.61
2019-05-02T10:43:08.688Z,73.85
2019-05-02T10:44:07.331Z,70.38
2019-05-02T10:45:07.384Z,75.68
2019-05-02T10:46:04.524Z,80.02
2019-05-02T10:47:03.119Z,75.01
2019-05-02T10:48:02.238Z,70.48
2019-05-02T10:49:01.961Z,72.02
2019-05-02T10:49:58.786Z,68.65
2019-05-02T10:50:57.522Z,68.07
2019-05-02T10:51:56.060Z,68.74
2019-05-02T10:52:54.671Z,73.18
2019-05-02T10:53:56.323Z,68.55
2019-05-02T10:54:52.800Z,66.62
2019-05-02T10:55:52.245Z,75.14
2019-05-02T10:56:49.320Z,76.68
2019-05-02T10:57:47.871Z,78.61
2019-05-02T10:58:46.423Z,76.88
2019-05-02T10:59:45.232Z,79.29
2019-05-02T11:00:45.422Z,76.5
2019-05-02T11:01:42.335Z,78.81
2019-05-02T11:02:41.922Z,74.08
2019-05-02T11:03:43.614Z,73.6
2019-05-02T11:04:38.214Z,70.9
2019-05-02T11:05:37.335Z,73.18
2019-05-02T11:06:37.063Z,74.24
2019-05-02T11:07:33.965Z,73.18
2019-05-02T11:08:36.596Z,73.75
2019-05-02T11:09:31.879Z,71.92
2019-05-02T11:10:29.906Z,71.92
2019-05-02T11:11:28.461Z,73.85
2019-05-02T11:12:40.249Z,72.6
2019-05-02T11:13:25.827Z,69.9
2019-05-02T11:14:24.374Z,76.26
2019-05-02T11:15:22.935Z,80.99
2019-05-02T11:16:21.730Z,79.54
2019-05-02T11:17:20.180Z,79.98
2019-05-02T11:18:18.887Z,73.37
2019-05-02T11:19:17.517Z,77.42
2019-05-02T11:20:16.002Z,79.64
2019-05-02T11:21:14.576Z,77.13
2019-05-02T11:22:13.181Z,73.57
2019-05-02T11:23:12.687Z,75.97
2019-05-02T11:24:13.624Z,79.93
2019-05-02T11:25:08.961Z,72.6
2019-05-02T11:26:07.648Z,76.88
2019-05-02T11:27:08.175Z,75.14
2019-05-02T11:28:07.026Z,75.82
2019-05-02T11:29:03.365Z,73.69
2019-05-02T11:30:02.683Z,73.69
2019-05-02T11:31:02.428Z,71.77
2019-05-02T11:31:59.295Z,75.34
2019-05-02T11:32:57.842Z,75.09
2019-05-02T11:33:56.374Z,75.09
2019-05-02T11:34:55.089Z,73.15
2019-05-02T11:35:53.839Z,68.91
2019-05-02T11:36:52.748Z,71.12
2019-05-02T11:37:51.627Z,74.69
2019-05-02T11:38:56.762Z,72.28
2019-05-02T11:39:52.217Z,69.68
2019-05-02T11:40:46.655Z,66.49
2019-05-02T11:41:45.461Z,67.65
2019-05-02T11:42:44.060Z,70.58
2019-05-02T11:43:44.937Z,69.62
2019-05-02T11:44:41.859Z,72.61
2019-05-02T11:45:39.976Z,73.48
2019-05-02T11:46:42.762Z,72.8
2019-05-02T11:47:37.099Z,75.12
2019-05-02T11:48:35.675Z,72.61
2019-05-02T11:49:34.242Z,74.25
2019-05-02T11:50:35.368Z,73.15
2019-05-02T11:51:32.576Z,68.17
2019-05-02T11:52:32.807Z,68.07
2019-05-02T11:53:29.536Z,69.62
2019-05-02T11:54:27.865Z,72.13
2019-05-02T11:55:28.804Z,68.84
2019-05-02T11:56:24.573Z,66.14
2019-05-02T11:57:28.372Z,64.4
2019-05-02T11:58:22.943Z,70.39
2019-05-02T11:59:27.580Z,73.48
2019-05-02T12:00:19.197Z,69.56
2019-05-02T12:01:19.260Z,68.88
2019-05-02T12:02:18.744Z,69.74
2019-05-02T12:03:14.887Z,66.85
2019-05-02T12:04:16.811Z,66.08
2019-05-02T12:05:12.760Z,64.72
2019-05-02T12:07:52.797Z,65.2
2019-05-02T12:08:52.451Z,64.21
2019-05-02T12:09:55.497Z,63.43
2019-05-02T12:10:48.721Z,66.53
2019-05-02T12:11:51.836Z,68.43
2019-05-02T12:12:45.974Z,64.4
2019-05-02T12:13:47.201Z,66.91
2019-05-02T12:14:43.359Z,66.72
2019-05-02T12:15:44.158Z,65.56
2019-05-02T12:26:41.882Z,69.78
2019-05-02T12:29:21.796Z,67.82
2019-05-02T12:30:19.491Z,65.85
2019-05-02T12:31:18.103Z,66.75
2019-05-02T12:32:16.806Z,67.04
2019-05-02T12:34:07.310Z,62.57
2019-05-02T12:35:05.900Z,61.25
2019-05-02T12:36:04.472Z,62.6
2019-05-02T12:37:03.320Z,65.08
2019-05-02T12:38:02.646Z,64.98
2019-05-02T12:39:59.851Z,64.21
2019-05-02T12:40:58.393Z,62.92
2019-05-02T12:41:57.293Z,63.02
2019-05-02T12:42:55.623Z,64.28
2019-05-02T12:43:54.207Z,62.95
2019-05-02T12:44:53.299Z,61.51
2019-05-02T12:45:52.674Z,64.28
2019-05-02T12:48:06.383Z,64.66
2019-05-02T12:49:05.071Z,62.63
2019-05-02T12:50:03.692Z,61.99
2019-05-02T12:51:02.266Z,62.66
2019-05-02T12:52:01.694Z,61.31
2019-05-02T12:52:59.722Z,58
2019-05-02T12:53:58.306Z,63.02
2019-05-02T12:54:56.853Z,63.21
2019-05-02T12:55:55.376Z,63.09
2019-05-02T12:56:53.928Z,58.39
2019-05-02T12:57:52.512Z,59.35
2019-05-02T12:58:52.908Z,58.65
2019-05-02T12:59:49.928Z,55.98
2019-05-02T13:00:48.563Z,53.08
2019-05-02T13:01:47.228Z,51.34
2019-05-02T13:02:45.883Z,50.18
2019-05-02T13:03:44.416Z,50.47
2019-05-02T13:04:42.980Z,50.57
2019-05-02T13:05:42.584Z,51.53
2019-05-02T13:06:41.914Z,51.34
2019-05-02T13:07:42.681Z,50.18
2019-05-02T13:08:37.512Z,49.99
2019-05-02T13:09:36.098Z,51.15
2019-05-02T13:10:34.746Z,51.07
2019-05-02T13:11:36.717Z,51.34
2019-05-02T13:12:32.351Z,51.37
2019-05-02T13:13:32.252Z,50.31
2019-05-02T13:14:29.097Z,50.4